Time;durP1;ratioP1;P1;durP2;ratioP2;P2;SDS_P1;SDS_P2;PMS_P1;PMS_P2;Temp;Humidity;BMP_temperature;BMP_pressure;BME280_temperature;BME280_humidity;BME280_pressure;Samples;Min_cycle;Max_cycle;Signal;HPM_P1;HPM_P2
2023/02/25 03:22:45;;;;;;;204.53;196.87;;;3.50;99.90;;;;;;6104505;23;20461;-87
2023/02/25 03:25:28;;;;;;;196.57;189.63;;;3.50;99.90;;;;;;6136704;23;20407;-87
2023/02/25 03:28:05;;;;;;;180.10;172.93;;;3.60;99.90;;;;;;6148853;23;20453;-87
2023/02/25 04:05:01;;;;;;;52.97;49.13;;;3.80;99.90;;;;;;6181012;23;20249;-87
2023/02/25 04:13:14;;;;;;;33.47;31.00;;;3.70;99.90;;;;;;6190831;23;20527;-87
2023/02/25 04:16:13;;;;;;;;;;;;;;;;;;;;;
2023/02/25 04:18:44;;;;;;;48.20;45.80;;;3.80;99.90;;;;;;6202926;23;20420;-86
2023/02/25 04:21:50;;;;;;;36.60;34.53;;;3.80;99.90;;;;;;6203554;23;20416;-87
2023/02/25 04:47:25;;;;;;;58.53;55.57;;;3.60;99.90;;;;;;6187490;23;20431;-86
2023/02/25 04:50:01;;;;;;;62.20;59.10;;;3.60;99.90;;;;;;6179978;23;20810;-88
2023/02/25 04:52:47;;;;;;;52.43;49.53;;;3.80;99.90;;;;;;6182102;23;20449;-87
2023/02/25 04:58:34;;;;;;;52.70;49.17;;;3.70;99.90;;;;;;6165773;23;20429;-89
2023/02/25 05:01:24;;;;;;;49.77;46.23;;;3.80;99.90;;;;;;6168976;23;20444;-88
2023/02/25 05:04:47;;;;;;;48.63;45.67;;;3.70;99.90;;;;;;6144638;23;20493;-86
2023/02/25 05:09:50;;;;;;;46.83;44.03;;;3.70;99.90;;;;;;6205705;23;20459;-82
2023/02/25 05:12:17;;;;;;;54.80;51.67;;;3.70;99.90;;;;;;6212156;23;20531;-82
2023/02/25 05:14:44;;;;;;;61.73;57.67;;;3.80;99.90;;;;;;6194485;23;20416;-82
2023/02/25 05:17:11;;;;;;;54.97;51.63;;;3.70;99.90;;;;;;6194122;23;20416;-82
2023/02/25 05:19:44;;;;;;;62.73;59.27;;;3.70;99.90;;;;;;6194787;23;20426;-85
2023/02/25 05:22:11;;;;;;;59.47;56.53;;;3.70;99.90;;;;;;6194657;23;20436;-84
2023/02/25 05:24:38;;;;;;;51.53;48.83;;;3.60;99.90;;;;;;6194651;23;20423;-84
2023/02/25 05:27:07;;;;;;;54.97;51.77;;;3.60;99.90;;;;;;6195000;23;20409;-85
2023/02/25 05:29:35;;;;;;;38.57;36.37;;;3.70;99.90;;;;;;6194756;23;20409;-85
2023/02/25 05:32:02;;;;;;;41.77;39.83;;;3.70;99.90;;;;;;6193154;23;20499;-85
2023/02/25 05:34:29;;;;;;;39.23;37.00;;;3.80;99.90;;;;;;6194082;23;20424;-85
2023/02/25 05:36:57;;;;;;;42.50;39.70;;;3.70;99.90;;;;;;6183794;23;20449;-86
2023/02/25 05:39:24;;;;;;;41.70;38.67;;;3.70;99.90;;;;;;6193183;23;20475;-85
2023/02/25 05:41:53;;;;;;;31.97;29.20;;;3.70;99.90;;;;;;6193387;23;20437;-87
2023/02/25 05:44:28;;;;;;;33.77;31.70;;;3.80;99.90;;;;;;6194024;23;20761;-86
2023/02/25 06:05:13;;;;;;;50.40;47.23;;;3.50;99.90;;;;;;6336404;22;20467;-84
2023/02/25 06:08:01;;;;;;;52.10;49.37;;;3.60;99.90;;;;;;6274743;22;1316176;-83
2023/02/25 06:10:37;;;;;;;59.83;56.13;;;3.70;99.90;;;;;;6305543;22;20672;-86
2023/02/25 06:26:14;;;;;;;56.37;53.37;;;3.60;99.90;;;;;;6199813;22;1354065;-79
2023/02/25 06:28:41;;;;;;;65.63;62.50;;;3.60;99.90;;;;;;6225200;23;20913;-81
2023/02/25 06:31:10;;;;;;;61.63;58.23;;;3.70;99.90;;;;;;6252898;23;21006;-81
2023/02/25 06:33:38;;;;;;;68.53;65.13;;;3.80;99.90;;;;;;6263190;22;20460;-80
2023/02/25 06:36:06;;;;;;;60.00;56.70;;;3.70;99.90;;;;;;6263151;22;20414;-81
2023/02/25 06:38:33;;;;;;;79.93;76.10;;;3.70;99.90;;;;;;6263056;22;20414;-80
2023/02/25 06:41:04;;;;;;;92.50;86.90;;;3.70;99.90;;;;;;6262535;22;20970;-82
2023/02/25 06:43:33;;;;;;;68.20;64.50;;;3.70;99.90;;;;;;6262925;22;20438;-82
2023/02/25 06:46:07;;;;;;;55.53;52.20;;;3.80;99.90;;;;;;6263307;22;20419;-81
2023/02/25 06:48:34;;;;;;;53.13;50.17;;;3.70;99.90;;;;;;6262152;22;20414;-82
2023/02/25 06:51:03;;;;;;;50.10;47.00;;;3.80;99.90;;;;;;6263517;22;20472;-82
2023/02/25 06:53:40;;;;;;;56.10;53.10;;;3.70;99.90;;;;;;6262182;22;20437;-82
2023/02/25 06:56:08;;;;;;;48.23;45.37;;;3.80;99.90;;;;;;6262609;22;20442;-81
2023/02/25 06:58:48;;;;;;;50.03;47.43;;;3.70;99.90;;;;;;6261491;22;20414;-84
2023/02/25 07:01:16;;;;;;;46.20;42.80;;;3.80;99.90;;;;;;6262129;22;20446;-85
2023/02/25 07:03:43;;;;;;;34.40;31.00;;;3.80;99.90;;;;;;6262614;22;20410;-84
2023/02/25 07:06:10;;;;;;;34.90;32.20;;;3.90;99.90;;;;;;6263116;22;20433;-85
2023/02/25 07:08:37;;;;;;;27.93;25.90;;;3.80;99.90;;;;;;6262243;22;20414;-83
2023/02/25 07:11:23;;;;;;;35.10;32.13;;;3.90;99.90;;;;;;6260878;22;20418;-81
2023/02/25 07:13:52;;;;;;;27.13;24.50;;;3.80;99.90;;;;;;6262128;22;20423;-82
2023/02/25 07:16:19;;;;;;;26.60;24.83;;;3.90;99.90;;;;;;6262941;22;20634;-81
2023/02/25 07:18:47;;;;;;;31.57;28.23;;;3.90;99.90;;;;;;6261495;22;20492;-82
2023/02/25 07:21:14;;;;;;;23.67;21.27;;;3.90;99.90;;;;;;6261419;22;20429;-81
2023/02/25 07:23:45;;;;;;;20.37;18.60;;;4.00;99.90;;;;;;6251825;23;20430;-85
2023/02/25 07:26:14;;;;;;;31.83;22.40;;;3.90;99.90;;;;;;6257584;22;20423;-83
2023/02/25 07:28:42;;;;;;;18.73;14.27;;;4.00;99.90;;;;;;6244234;23;20410;-82
2023/02/25 07:31:12;;;;;;;18.27;12.47;;;4.00;99.90;;;;;;6255269;23;20446;-82
2023/02/25 07:33:40;;;;;;;13.00;11.10;;;4.10;99.90;;;;;;6254835;23;20458;-84
2023/02/25 07:36:07;;;;;;;15.13;11.37;;;4.30;99.90;;;;;;6255375;23;20414;-84
2023/02/25 07:38:34;;;;;;;18.47;11.50;;;4.20;99.90;;;;;;6254621;23;20476;-84
2023/02/25 07:41:05;;;;;;;14.53;9.63;;;4.20;99.90;;;;;;6255526;23;20407;-85
2023/02/25 07:43:31;;;;;;;14.27;10.57;;;4.30;99.90;;;;;;6255138;23;20485;-83
2023/02/25 07:45:59;;;;;;;13.70;7.00;;;4.20;99.90;;;;;;6254690;23;20450;-82
2023/02/25 07:48:27;;;;;;;19.63;8.80;;;4.40;99.90;;;;;;6253546;23;20423;-83
2023/02/25 07:50:54;;;;;;;14.13;8.53;;;4.30;99.90;;;;;;6255205;23;20439;-83
2023/02/25 07:53:22;;;;;;;23.47;8.10;;;4.40;99.90;;;;;;6254689;23;20427;-83
2023/02/25 07:55:49;;;;;;;17.77;8.30;;;4.30;99.90;;;;;;6255911;23;20489;-82
2023/02/25 07:58:16;;;;;;;17.40;5.47;;;4.40;99.90;;;;;;6255186;23;20447;-83
2023/02/25 08:00:45;;;;;;;15.80;5.07;;;4.40;99.90;;;;;;6254946;23;20437;-84
2023/02/25 08:03:14;;;;;;;14.80;6.43;;;4.50;99.90;;;;;;6255199;23;20434;-86
2023/02/25 08:05:42;;;;;;;15.27;4.57;;;4.50;99.90;;;;;;6255822;23;20417;-79
2023/02/25 08:08:12;;;;;;;16.27;4.97;;;4.60;99.90;;;;;;6252716;23;20423;-79
2023/02/25 08:11:26;;;;;;;9.20;4.43;;;4.50;99.90;;;;;;6254600;23;20510;-79
2023/02/25 08:13:53;;;;;;;20.43;4.73;;;4.60;99.90;;;;;;6131447;23;20445;-79
2023/02/25 08:16:47;;;;;;;20.57;4.67;;;4.70;99.90;;;;;;6230072;23;20422;-79
2023/02/25 08:22:38;;;;;;;12.00;4.17;;;4.70;99.90;;;;;;6252302;23;20446;-80
2023/02/25 08:27:52;;;;;;;22.97;4.20;;;4.80;99.90;;;;;;6232563;23;20412;-79
2023/02/25 08:30:20;;;;;;;19.47;3.83;;;4.80;99.90;;;;;;6254464;23;20410;-78
2023/02/25 08:32:51;;;;;;;18.33;4.17;;;5.00;99.90;;;;;;6253711;23;20451;-80
2023/02/25 08:35:18;;;;;;;18.23;4.13;;;5.10;99.90;;;;;;6254861;23;20514;-77
2023/02/25 08:37:59;;;;;;;18.23;3.70;;;5.10;99.90;;;;;;6244078;23;20425;-77
2023/02/25 08:40:55;;;;;;;16.00;3.73;;;5.20;99.90;;;;;;6244264;23;20483;-77
2023/02/25 08:43:40;;;;;;;21.33;3.07;;;5.30;99.90;;;;;;6254636;23;20438;-77
2023/02/25 08:46:42;;;;;;;15.23;4.30;;;5.30;99.90;;;;;;6254820;23;20411;-77
2023/02/25 08:49:10;;;;;;;21.83;3.70;;;5.50;99.90;;;;;;6236614;23;20411;-76
2023/02/25 08:51:37;;;;;;;15.23;2.97;;;5.50;99.90;;;;;;6244876;23;20431;-77
2023/02/25 08:54:07;;;;;;;9.57;2.63;;;5.80;99.90;;;;;;6244987;23;20494;-77
2023/02/25 08:57:05;;;;;;;15.70;3.27;;;5.70;99.90;;;;;;6243889;23;20443;-78
2023/02/25 09:00:14;;;;;;;14.37;3.60;;;5.80;99.90;;;;;;6132043;23;20403;-78
2023/02/25 09:10:06;;;;;;;12.40;2.80;;;5.40;99.90;;;;;;6043683;23;20406;-80
2023/02/25 09:12:35;;;;;;;13.70;3.00;;;5.30;99.90;;;;;;6151190;23;20924;-80
2023/02/25 09:15:02;;;;;;;12.37;3.80;;;5.10;99.90;;;;;;6218800;23;20439;-80
2023/02/25 09:17:29;;;;;;;13.17;3.03;;;5.10;99.90;;;;;;6244986;23;20505;-79
2023/02/25 09:19:57;;;;;;;10.23;3.30;;;5.10;99.90;;;;;;6254053;23;20435;-83
2023/02/25 09:22:24;;;;;;;14.67;3.60;;;4.90;99.90;;;;;;6244532;23;20801;-83
2023/02/25 09:24:51;;;;;;;12.03;3.70;;;4.80;99.90;;;;;;6244194;23;20415;-82
2023/02/25 09:27:20;;;;;;;21.53;3.60;;;4.80;99.90;;;;;;6244725;23;20498;-82
2023/02/25 09:29:47;;;;;;;16.27;3.87;;;4.90;99.90;;;;;;6244161;23;20943;-81
2023/02/25 09:32:18;;;;;;;17.50;5.40;;;5.00;99.90;;;;;;6244477;23;20506;-82
2023/02/25 09:34:45;;;;;;;9.80;3.57;;;4.70;99.90;;;;;;6255021;23;20745;-82
2023/02/25 09:37:13;;;;;;;20.63;6.30;;;4.60;99.90;;;;;;6245138;23;20443;-82
2023/02/25 09:39:41;;;;;;;10.00;5.73;;;4.30;99.90;;;;;;6244445;23;20472;-82
2023/02/25 09:42:13;;;;;;;9.33;3.33;;;4.30;99.90;;;;;;6242054;23;20431;-83
2023/02/25 09:44:44;;;;;;;16.33;6.63;;;4.60;99.90;;;;;;6253773;23;20406;-82
2023/02/25 09:47:18;;;;;;;20.03;6.43;;;5.00;99.90;;;;;;6243947;23;20419;-85
2023/02/25 09:49:48;;;;;;;13.93;7.40;;;5.20;99.90;;;;;;6243634;23;20395;-82
2023/02/25 09:52:18;;;;;;;17.67;4.00;;;5.40;99.90;;;;;;6244247;23;20439;-82
2023/02/25 09:54:47;;;;;;;34.53;4.97;;;5.40;99.90;;;;;;6243624;23;20435;-82
2023/02/25 09:57:18;;;;;;;15.60;3.10;;;5.50;99.90;;;;;;6243402;23;20510;-82
2023/02/25 09:59:48;;;;;;;13.83;3.30;;;5.60;99.90;;;;;;6243576;23;20395;-82
2023/02/25 10:02:26;;;;;;;9.80;2.80;;;5.70;99.90;;;;;;6252734;23;20988;-80
2023/02/25 10:05:06;;;;;;;7.60;3.03;;;5.80;99.90;;;;;;6243412;23;20391;-82
2023/02/25 10:07:42;;;;;;;7.80;2.50;;;5.90;99.90;;;;;;6242725;23;20431;-82
2023/02/25 10:10:16;;;;;;;8.17;3.33;;;5.80;99.90;;;;;;6242928;23;20569;-82
2023/02/25 10:12:54;;;;;;;12.30;3.20;;;6.00;99.90;;;;;;6253431;23;20510;-82
2023/02/25 10:15:33;;;;;;;10.67;3.53;;;6.20;99.90;;;;;;6242500;23;21056;-82
2023/02/25 10:18:22;;;;;;;9.77;3.43;;;6.10;99.90;;;;;;6252599;23;20396;-82
2023/02/25 10:21:08;;;;;;;9.87;3.30;;;6.40;99.90;;;;;;6253148;23;20407;-82
2023/02/25 10:23:57;;;;;;;7.20;2.60;;;6.40;99.90;;;;;;6252331;23;20514;-83
2023/02/25 10:26:26;;;;;;;8.50;2.17;;;6.80;99.90;;;;;;6242521;23;20396;-82
2023/02/25 10:28:58;;;;;;;9.50;2.23;;;7.20;99.90;;;;;;6239905;23;20411;-82
2023/02/25 10:31:30;;;;;;;39.17;3.73;;;7.20;99.90;;;;;;6242389;23;20423;-83
2023/02/25 10:34:00;;;;;;;13.67;2.00;;;7.60;99.90;;;;;;6253091;23;20734;-84
2023/02/25 10:36:30;;;;;;;9.50;2.00;;;7.20;99.90;;;;;;6242901;23;20518;-84
2023/02/25 10:38:57;;;;;;;11.07;2.20;;;7.30;99.90;;;;;;6243195;23;20402;-84
2023/02/25 10:41:26;;;;;;;9.43;2.13;;;7.10;99.90;;;;;;6253430;23;20486;-87
2023/02/25 10:43:54;;;;;;;6.37;1.50;;;6.50;99.90;;;;;;6252936;23;20407;-88
2023/02/25 10:46:30;;;;;;;4.40;1.30;;;4.90;99.90;;;;;;6243037;23;20411;-85
2023/02/25 10:48:59;;;;;;;6.83;1.67;;;4.10;99.90;;;;;;6252635;23;20794;-83
2023/02/25 10:51:28;;;;;;;4.40;1.83;;;3.20;99.90;;;;;;6242678;23;20804;-80
2023/02/25 10:54:05;;;;;;;7.67;4.27;;;3.70;99.90;;;;;;6242762;23;20439;-81
2023/02/25 10:56:39;;;;;;;4.43;2.27;;;3.40;99.90;;;;;;6242616;23;20461;-77
2023/02/25 10:59:18;;;;;;;12.63;6.40;;;3.60;99.90;;;;;;6242277;23;20398;-79
2023/02/25 11:01:47;;;;;;;7.60;5.13;;;3.50;99.90;;;;;;6243515;23;20427;-77
2023/02/25 11:04:18;;;;;;;6.90;3.37;;;3.30;99.90;;;;;;6244501;23;20422;-77
2023/02/25 11:06:45;;;;;;;10.10;6.17;;;2.70;99.90;;;;;;6254827;23;20767;-80
2023/02/25 11:11:55;;;;;;;25.47;24.03;;;2.80;99.90;;;;;;6205174;23;20440;-86
2023/02/25 11:14:31;;;;;;;44.77;42.70;;;3.00;99.90;;;;;;6162367;23;20416;-90
2023/02/25 11:17:13;;;;;;;28.20;26.57;;;2.90;99.90;;;;;;6196154;23;20423;-91
2023/02/25 11:19:44;;;;;;;93.67;89.73;;;3.10;99.90;;;;;;6194774;23;20921;-88
2023/02/25 11:22:17;;;;;;;11.33;10.30;;;3.70;99.90;;;;;;6194138;23;20495;-88
2023/02/25 11:25:17;;;;;;;29.80;28.10;;;3.60;99.90;;;;;;6196130;23;20412;-87
2023/02/25 11:27:53;;;;;;;22.90;21.30;;;4.10;99.90;;;;;;6196050;23;20421;-91
2023/02/25 11:30:34;;;;;;;24.60;23.50;;;4.00;99.90;;;;;;6194924;23;20416;-87
2023/02/25 11:33:11;;;;;;;25.37;23.77;;;4.40;99.90;;;;;;6195265;23;20473;-86
2023/02/25 11:35:40;;;;;;;178.50;172.27;;;5.20;99.90;;;;;;6192742;23;20490;-85
2023/02/25 11:41:00;;;;;;;81.67;77.83;;;6.20;99.90;;;;;;6173528;23;20413;-85
2023/02/25 11:43:41;;;;;;;37.57;35.70;;;6.40;99.90;;;;;;6195446;23;20483;-90
2023/02/25 11:46:12;;;;;;;19.70;18.53;;;5.80;99.90;;;;;;6194056;23;20415;-85
2023/02/25 11:48:49;;;;;;;7.83;7.10;;;5.90;99.90;;;;;;6193834;23;20495;-86
2023/02/25 11:51:33;;;;;;;8.03;3.77;;;6.00;99.90;;;;;;6193782;23;20408;-84
2023/02/25 11:54:24;;;;;;;7.30;4.37;;;6.00;99.90;;;;;;6193838;23;20404;-84
2023/02/25 11:57:05;;;;;;;9.23;3.30;;;6.40;99.90;;;;;;6183019;23;20421;-86
2023/02/25 11:59:51;;;;;;;7.80;3.50;;;6.60;99.90;;;;;;6193876;23;20483;-88
2023/02/25 12:02:39;;;;;;;9.43;3.30;;;7.00;99.90;;;;;;6193722;23;20495;-85
2023/02/25 12:05:49;;;;;;;5.10;1.63;;;7.10;99.90;;;;;;6193851;23;20401;-88
2023/02/25 12:08:55;;;;;;;8.07;2.33;;;7.30;99.90;;;;;;6172406;23;20415;-84
2023/02/25 12:12:38;;;;;;;8.40;3.30;;;7.20;99.90;;;;;;6163399;23;20491;-82
2023/02/25 12:15:50;;;;;;;11.50;3.20;;;7.90;99.90;;;;;;6100975;23;20459;-83
2023/02/25 12:19:11;;;;;;;;;;;;;;;;;;;;;
2023/02/25 12:22:15;;;;;;;7.87;3.20;;;8.60;99.90;;;;;;6048418;23;20512;-86
2023/02/25 12:25:35;;;;;;;6.27;2.20;;;7.90;99.90;;;;;;6101587;23;20502;-83
2023/02/25 12:35:30;;;;;;;5.10;1.77;;;7.10;99.90;;;;;;6110761;23;20411;-82
2023/02/25 12:38:45;;;;;;;4.63;1.83;;;7.00;99.90;;;;;;6193610;23;20409;-83
2023/02/25 12:41:32;;;;;;;5.20;1.33;;;6.70;99.90;;;;;;6193590;23;20417;-83
2023/02/25 12:51:31;;;;;;;3.73;1.13;;;7.20;99.90;;;;;;6142632;23;20401;-83
2023/02/25 12:54:19;;;;;;;6.60;1.47;;;7.80;99.90;;;;;;6144645;23;20413;-84
2023/02/25 13:01:04;;;;;;;;;;;;;;;;;;;;;
2023/02/25 13:04:07;;;;;;;7.97;1.80;;;8.50;95.90;;;;;;6067141;23;20538;-87
2023/02/25 13:07:30;;;;;;;4.90;1.63;;;8.60;97.50;;;;;;6020231;23;20473;-84
2023/02/25 13:44:56;;;;;;;7.53;2.27;;;7.20;90.30;;;;;;6240519;23;20423;-83
2023/02/25 13:47:56;;;;;;;5.23;1.70;;;7.70;92.80;;;;;;6199501;22;20430;-83
2023/02/25 13:54:30;;;;;;;9.10;2.50;;;7.50;88.10;;;;;;6231820;22;20432;-85
2023/02/25 14:31:25;;;;;;;8.10;2.17;;;6.00;74.90;;;;;;6135100;22;4163111;-83
2023/02/25 14:34:34;;;;;;;5.33;1.60;;;6.30;74.00;;;;;;6325523;22;20393;-85
2023/02/25 14:37:29;;;;;;;5.50;1.73;;;6.60;71.70;;;;;;6249347;22;20420;-84
2023/02/25 14:40:20;;;;;;;10.73;2.60;;;6.80;72.60;;;;;;6323122;22;20408;-84
2023/02/25 14:43:18;;;;;;;6.47;1.60;;;6.90;69.70;;;;;;6324102;22;20486;-84
2023/02/25 14:45:53;;;;;;;5.60;1.70;;;7.20;70.00;;;;;;6294128;22;20492;-84
2023/02/25 14:48:59;;;;;;;9.67;1.90;;;7.10;64.00;;;;;;6323591;22;20412;-85
2023/02/25 14:52:18;;;;;;;7.63;1.90;;;7.10;63.50;;;;;;6309529;22;20416;-84
2023/02/25 14:55:24;;;;;;;8.50;1.80;;;7.30;70.50;;;;;;6274974;22;20421;-86
2023/02/25 15:01:36;;;;;;;7.97;1.20;;;7.10;62.50;;;;;;6309647;22;20412;-84
2023/02/25 15:04:35;;;;;;;5.43;1.80;;;6.40;59.70;;;;;;6322824;22;20683;-83
2023/02/25 15:07:22;;;;;;;6.73;1.90;;;6.30;59.20;;;;;;6323048;22;20947;-83
2023/02/25 15:10:37;;;;;;;6.47;1.73;;;6.20;60.30;;;;;;6222444;22;20493;-84
2023/02/25 15:13:37;;;;;;;4.63;1.30;;;6.30;57.90;;;;;;6231307;22;20458;-84
2023/02/25 15:16:55;;;;;;;6.80;1.50;;;6.60;57.00;;;;;;6231344;22;20388;-83
2023/02/25 15:22:52;;;;;;;7.33;1.47;;;6.50;64.20;;;;;;6114457;23;20425;-85
2023/02/25 15:26:14;;;;;;;6.07;1.13;;;6.50;64.40;;;;;;6215898;23;20483;-84
2023/02/25 15:38:14;;;;;;;4.93;1.10;;;6.30;47.20;;;;;;6083162;23;20792;-84
2023/02/25 15:40:48;;;;;;;4.30;1.00;;;6.30;44.90;;;;;;6161054;23;21059;-84
2023/02/25 15:43:43;;;;;;;4.30;1.40;;;6.30;45.00;;;;;;6150797;23;20525;-84
2023/02/25 15:46:41;;;;;;;3.70;0.80;;;6.10;41.50;;;;;;6223397;22;20420;-84
2023/02/25 15:49:47;;;;;;;17.93;6.17;;;6.10;47.30;;;;;;6213737;23;21117;-84
2023/02/25 15:52:52;;;;;;;4.67;1.53;;;6.00;47.60;;;;;;6188932;22;20440;-84
2023/02/25 15:55:36;;;;;;;7.60;1.70;;;5.90;53.00;;;;;;6224379;22;20447;-84
2023/02/25 16:01:42;;;;;;;6.40;1.40;;;5.80;50.40;;;;;;6202426;22;20432;-84
2023/02/25 16:08:13;;;;;;;4.43;1.40;;;5.80;55.50;;;;;;6214124;22;20447;-83
2023/02/25 16:11:07;;;;;;;4.83;1.13;;;5.70;54.60;;;;;;6191035;22;21062;-83
2023/02/25 16:16:51;;;;;;;4.57;1.53;;;5.20;55.50;;;;;;6133015;23;20406;-83
2023/02/25 16:19:24;;;;;;;4.57;1.27;;;5.20;58.10;;;;;;6214139;23;20392;-83
2023/02/25 16:22:40;;;;;;;6.60;1.33;;;5.00;58.50;;;;;;6224544;22;20435;-83
2023/02/25 16:32:01;;;;;;;9.80;2.20;;;5.00;58.60;;;;;;6198090;22;20773;-84
2023/02/25 16:34:48;;;;;;;4.03;1.30;;;4.90;60.50;;;;;;6224003;23;20389;-83
2023/02/25 16:40:30;;;;;;;11.20;1.60;;;4.90;60.50;;;;;;6212922;22;20771;-83
2023/02/25 16:43:43;;;;;;;7.23;1.93;;;4.60;65.40;;;;;;6223171;22;20468;-83
2023/02/25 16:46:13;;;;;;;5.30;0.90;;;4.70;55.80;;;;;;6206129;22;20433;-83
2023/02/25 16:48:49;;;;;;;4.27;1.27;;;4.50;56.20;;;;;;6223803;22;20408;-83
2023/02/25 16:51:24;;;;;;;5.30;1.37;;;4.60;54.40;;;;;;6223427;23;20486;-83
2023/02/25 16:57:00;;;;;;;6.50;1.13;;;4.30;57.00;;;;;;6203886;22;20969;-83
2023/02/25 16:59:31;;;;;;;4.33;1.00;;;4.10;56.90;;;;;;6223193;22;20427;-83
2023/02/25 17:02:02;;;;;;;7.30;2.10;;;4.00;58.50;;;;;;6224050;22;20432;-83
2023/02/25 17:04:32;;;;;;;5.97;1.47;;;3.80;59.10;;;;;;6214135;23;20397;-83
2023/02/25 17:07:11;;;;;;;4.57;1.23;;;4.00;62.60;;;;;;6224181;22;20458;-84
2023/02/25 17:09:44;;;;;;;4.80;1.13;;;3.80;58.40;;;;;;6188205;23;20449;-78
2023/02/25 17:12:17;;;;;;;8.13;1.53;;;3.70;61.20;;;;;;6183799;23;20536;-78
2023/02/25 17:14:47;;;;;;;4.60;1.60;;;3.70;61.60;;;;;;6184015;23;20468;-78
2023/02/25 17:17:18;;;;;;;4.53;1.30;;;3.50;63.50;;;;;;6183532;23;20509;-77
2023/02/25 17:19:45;;;;;;;5.70;1.47;;;3.70;62.00;;;;;;6183258;23;20393;-78
2023/02/25 17:22:12;;;;;;;5.40;1.60;;;3.60;62.40;;;;;;6183528;23;20520;-78
2023/02/25 17:24:39;;;;;;;4.80;1.87;;;3.50;61.70;;;;;;6183923;23;20440;-78
2023/02/25 17:27:11;;;;;;;6.93;2.00;;;3.70;63.40;;;;;;6193803;23;20407;-78
2023/02/25 17:29:38;;;;;;;6.53;2.17;;;3.50;65.80;;;;;;6183776;23;20432;-78
2023/02/25 17:32:19;;;;;;;11.70;1.57;;;3.40;66.70;;;;;;6193577;23;21160;-78
2023/02/25 17:34:47;;;;;;;4.23;1.40;;;3.10;72.10;;;;;;6183726;23;20423;-78
2023/02/25 17:37:16;;;;;;;4.30;1.20;;;2.60;80.30;;;;;;6157694;23;20413;-78
2023/02/25 17:39:44;;;;;;;5.80;1.67;;;2.50;81.40;;;;;;6183388;23;20409;-78
2023/02/25 17:42:32;;;;;;;5.27;1.40;;;2.60;78.70;;;;;;6183226;23;20484;-77
2023/02/25 17:45:00;;;;;;;7.13;2.47;;;2.70;77.80;;;;;;6183781;23;20437;-78
2023/02/25 17:47:30;;;;;;;4.40;1.40;;;2.70;76.80;;;;;;6183930;23;20412;-79
2023/02/25 17:49:58;;;;;;;6.77;2.53;;;2.70;76.70;;;;;;6183502;23;20437;-79
2023/02/25 17:52:28;;;;;;;7.70;2.37;;;2.90;73.30;;;;;;6157942;23;20955;-79
2023/02/25 17:54:59;;;;;;;4.97;1.60;;;2.90;74.60;;;;;;6184437;23;20457;-79
2023/02/25 17:57:28;;;;;;;4.93;1.50;;;2.90;72.70;;;;;;6184248;23;20405;-79
2023/02/25 17:59:56;;;;;;;6.45;2.22;;;2.90;71.90;;;;;;6193581;23;20417;-79
2023/02/25 18:02:38;;;;;;;8.27;2.07;;;2.70;77.20;;;;;;6193740;23;20529;-79
2023/02/25 18:05:24;;;;;;;6.33;1.70;;;2.60;77.40;;;;;;6194078;23;20850;-78
2023/02/25 18:08:19;;;;;;;4.47;1.67;;;2.40;79.60;;;;;;6183720;23;20393;-80
2023/02/25 18:10:53;;;;;;;13.57;1.93;;;2.80;73.30;;;;;;6115326;23;20448;-79
2023/02/25 18:13:34;;;;;;;7.70;1.80;;;2.90;73.90;;;;;;6193741;23;20425;-79
2023/02/25 18:16:38;;;;;;;6.90;2.10;;;2.90;71.90;;;;;;6193917;23;20754;-79
2023/02/25 18:19:35;;;;;;;7.77;1.90;;;3.00;70.80;;;;;;6183763;23;20488;-79
2023/02/25 18:22:02;;;;;;;5.43;2.10;;;2.90;70.70;;;;;;6183960;23;20451;-79
2023/02/25 18:24:32;;;;;;;5.83;1.80;;;2.90;71.90;;;;;;6192876;23;20496;-78
2023/02/25 18:27:23;;;;;;;5.60;2.10;;;2.70;76.70;;;;;;6193789;23;20756;-79
2023/02/25 18:29:50;;;;;;;4.63;1.37;;;2.50;79.80;;;;;;6183729;23;20436;-78
2023/02/25 18:32:17;;;;;;;8.10;2.27;;;2.40;84.00;;;;;;6184047;23;20447;-79
2023/02/25 18:34:45;;;;;;;5.60;1.33;;;2.00;86.40;;;;;;6193270;23;21147;-79
2023/02/25 18:37:17;;;;;;;7.20;2.90;;;1.90;85.10;;;;;;6181653;23;20448;-79
2023/02/25 18:39:47;;;;;;;10.33;2.13;;;2.00;86.20;;;;;;6192759;23;20952;-79
2023/02/25 18:42:15;;;;;;;4.97;1.97;;;1.90;86.30;;;;;;6183017;23;20972;-79
2023/02/25 18:44:44;;;;;;;5.00;1.40;;;2.00;86.90;;;;;;6183498;23;20499;-78
2023/02/25 18:47:11;;;;;;;9.27;2.30;;;1.70;89.80;;;;;;6182980;23;21187;-78
2023/02/25 18:49:38;;;;;;;10.13;1.90;;;1.60;90.00;;;;;;6182431;23;20483;-78
2023/02/25 18:52:21;;;;;;;10.03;1.70;;;1.80;90.00;;;;;;6182716;23;20522;-78
2023/02/25 18:54:48;;;;;;;9.20;2.37;;;1.80;88.30;;;;;;6192902;23;20389;-79
2023/02/25 18:57:25;;;;;;;5.63;1.93;;;1.70;88.50;;;;;;6185015;23;20507;-79
2023/02/25 18:59:52;;;;;;;7.93;1.80;;;1.90;85.40;;;;;;6185353;23;20737;-79
2023/02/25 19:02:31;;;;;;;8.57;3.67;;;2.00;82.60;;;;;;6184056;23;20812;-80
2023/02/25 19:04:59;;;;;;;10.50;3.27;;;2.20;80.30;;;;;;6194688;23;20463;-79
2023/02/25 19:07:30;;;;;;;7.03;1.97;;;2.30;81.20;;;;;;6184397;23;20413;-79
2023/02/25 19:09:57;;;;;;;7.20;2.17;;;2.10;80.10;;;;;;6183874;23;20534;-79
2023/02/25 19:12:26;;;;;;;7.27;1.70;;;2.30;79.10;;;;;;6185052;23;20948;-79
2023/02/25 19:14:57;;;;;;;4.17;1.63;;;2.40;79.20;;;;;;6194349;23;20796;-79
2023/02/25 19:17:24;;;;;;;8.93;2.30;;;2.40;77.80;;;;;;6185078;23;20401;-79
2023/02/25 19:19:51;;;;;;;4.90;2.35;;;2.30;79.40;;;;;;6183609;23;20836;-79
2023/02/25 19:22:18;;;;;;;7.50;1.90;;;2.40;78.50;;;;;;6193072;23;20260;-79
2023/02/25 19:24:48;;;;;;;4.27;2.10;;;2.30;78.80;;;;;;6193328;23;20487;-79
2023/02/25 19:27:20;;;;;;;4.30;1.50;;;2.40;77.80;;;;;;6183652;23;20421;-79
2023/02/25 19:29:49;;;;;;;7.03;1.90;;;2.30;78.30;;;;;;6166813;23;20777;-79
2023/02/25 19:32:17;;;;;;;7.43;2.00;;;2.40;79.50;;;;;;6183750;23;20433;-79
2023/02/25 19:34:44;;;;;;;5.27;1.47;;;2.30;80.40;;;;;;6183954;23;20409;-79
2023/02/25 19:37:12;;;;;;;5.53;2.47;;;2.20;81.00;;;;;;6193591;23;20435;-79
2023/02/25 19:39:40;;;;;;;11.53;2.53;;;2.10;81.70;;;;;;6182969;23;20500;-79
2023/02/25 19:42:09;;;;;;;6.40;2.13;;;2.00;82.70;;;;;;6183939;23;21012;-78
2023/02/25 19:44:37;;;;;;;12.63;2.57;;;1.90;85.10;;;;;;6194436;23;20463;-78
2023/02/25 19:47:05;;;;;;;6.07;2.10;;;2.00;84.70;;;;;;6185011;23;20456;-79
2023/02/25 19:49:32;;;;;;;5.33;1.90;;;1.70;85.50;;;;;;6183836;23;20491;-78
2023/02/25 19:51:59;;;;;;;6.13;2.43;;;1.90;84.90;;;;;;6184577;23;20515;-79
2023/02/25 19:54:26;;;;;;;7.10;2.60;;;1.70;86.10;;;;;;6184584;23;20424;-79
2023/02/25 19:56:53;;;;;;;5.20;1.83;;;1.70;86.10;;;;;;6183541;23;20451;-79
2023/02/25 19:59:21;;;;;;;9.43;2.70;;;1.80;86.20;;;;;;6193995;23;20448;-78
2023/02/25 20:01:48;;;;;;;12.40;2.73;;;1.60;88.20;;;;;;6184571;23;20459;-79
2023/02/25 20:04:15;;;;;;;4.00;1.50;;;1.70;88.30;;;;;;6184647;23;20444;-79
2023/02/25 20:06:42;;;;;;;9.20;2.80;;;1.70;87.80;;;;;;6194675;23;20829;-79
2023/02/25 20:09:09;;;;;;;12.30;2.30;;;1.60;90.30;;;;;;6184444;23;20448;-79
2023/02/25 20:11:36;;;;;;;6.13;2.67;;;1.50;90.30;;;;;;6184981;23;20464;-78
2023/02/25 20:14:04;;;;;;;4.20;2.10;;;1.50;90.40;;;;;;6184781;23;20917;-78
2023/02/25 20:16:33;;;;;;;5.77;2.20;;;1.50;91.10;;;;;;6194630;23;20417;-79
2023/02/25 20:19:00;;;;;;;6.47;1.50;;;1.40;91.70;;;;;;6193796;23;20947;-79
2023/02/25 20:21:27;;;;;;;19.23;2.20;;;1.40;92.30;;;;;;6183755;23;20409;-78
2023/02/25 20:23:57;;;;;;;4.60;2.23;;;1.40;92.90;;;;;;6184575;23;20495;-79
2023/02/25 20:26:25;;;;;;;5.20;2.63;;;1.00;96.60;;;;;;6194669;23;20467;-79
2023/02/25 20:28:53;;;;;;;8.50;2.33;;;0.70;99.90;;;;;;6194183;23;20448;-79
2023/02/25 20:31:21;;;;;;;11.13;3.40;;;0.70;99.90;;;;;;6184400;23;20194;-79
2023/02/25 20:33:50;;;;;;;9.57;3.57;;;0.60;99.90;;;;;;6194089;23;20410;-79
2023/02/25 20:36:20;;;;;;;6.50;3.00;;;0.20;99.90;;;;;;6184477;23;20452;-79
2023/02/25 20:39:01;;;;;;;5.60;2.53;;;-0.10;99.90;;;;;;6184216;23;20902;-79
2023/02/25 20:41:29;;;;;;;4.87;2.20;;;-0.20;99.90;;;;;;6194787;23;20495;-79
2023/02/25 20:43:56;;;;;;;5.33;2.50;;;-0.40;99.90;;;;;;6193961;23;20416;-79
2023/02/25 20:46:26;;;;;;;7.63;2.30;;;-0.50;99.90;;;;;;6193910;23;20439;-79
2023/02/25 20:48:55;;;;;;;9.30;2.80;;;-0.60;99.90;;;;;;6192837;23;20401;-79
2023/02/25 20:51:23;;;;;;;9.10;3.00;;;-0.70;99.90;;;;;;6183953;23;20455;-79
2023/02/25 20:53:51;;;;;;;7.25;2.83;;;-0.70;99.90;;;;;;6192828;23;20405;-79
2023/02/25 20:56:21;;;;;;;7.38;3.22;;;-0.70;99.90;;;;;;6183989;23;20217;-79
2023/02/25 20:58:48;;;;;;;6.38;3.80;;;-0.50;99.90;;;;;;6193239;23;20589;-79
2023/02/25 21:01:15;;;;;;;13.03;4.97;;;-0.90;99.90;;;;;;6194131;23;20241;-80
2023/02/25 21:03:42;;;;;;;16.55;4.35;;;-1.00;99.90;;;;;;6193947;23;20964;-79
2023/02/25 21:06:12;;;;;;;12.63;5.18;;;-1.00;99.90;;;;;;6193314;23;20173;-79
2023/02/25 21:08:40;;;;;;;8.40;4.67;;;-1.30;99.90;;;;;;6192620;23;20200;-79
2023/02/25 21:11:08;;;;;;;7.60;5.00;;;-1.30;99.90;;;;;;6193981;23;20432;-80
2023/02/25 21:13:35;;;;;;;17.80;8.18;;;-1.40;99.90;;;;;;6193020;23;20186;-80